LFMLLIEE

Guest
Details From LFML - Marseille/provence
To LIEE - Cagliari Elmas
Flight Number -
Tags Generated
Created
Modified
Stats Distance 305 nm / 565 km
Max Altitude 0 ft / 0 m
Waypoints 3
Social Downloads 2
Likes 0
Share VATSIM

Download

Looking for another format? Having issues loading an existing format? Contact us
Advertisement - Login to hide

Notes

Generated

Route

LFML DEC10 LIEE

ID Type Via Altitude Latitude Longitude Leg Dist Tot Dist Heading (true) Name
O LFML APT - 0 ft / 0 m 43.44093˚ 5.20362˚ - 0 nm - -
DEC10 FIX - 0 ft / 0 m 39.51440˚ 8.83595˚ 286 nm 286 nm 144° / 146° -
O LIEE APT - 0 ft / 0 m 39.26081˚ 9.04347˚ 18 nm 304 nm 148° / 148° -

Altitude Profile

Advertisement - Login to hide

Weather


0- 5 10 15 20 25 30 35+ Temperature / ° C

Clouds and Precipitation
Forecast for 2017-12-11 12:00 UTC. Updated 25 minutes ago

Ground ~20,000 ft ~40,000 ft Winds

LFML

Details ICAO LFML (MRS)
Name Marseille Provence
Region France
Timezone Europe/Paris (UTC+1.0)
Stats Elevation 74 ft / 23 m (AMSL)
Location 43.435892° 5.213282°
Runways 2
Magnetic Variation 1.551° E

METAR

LFML 110730Z AUTO 14024G35KT 9999 FEW027/// BKN033/// OVC039/// ///TCU 15/12 Q0988 TEMPO 4000 RA BKN014 BECMG 14015G25KT

Decode

TAF

TAF LFML 110200Z 1103/1209 14015G25KT 9999 BKN040 TEMPO 1103/1115 4000 RA BKN014 PROB40 TEMPO 1103/1109 14023G35KT BECMG 1115/1118 30007KT CAVOK TEMPO 1118/1206 VRB03KT TX16/1113Z TN12/1104Z

Decode

Departure Runways

ID Width Length Bearing (true) Bearing (mag) Surface Threshold Offset Overrun Length
13L 148 ft / 45 m 11,478 ft / 3,499 m 133.99° 132.44° Asphalt 1,115 ft / 340 m 0 ft / 0 m
13R 148 ft / 45 m 7,981 ft / 2,433 m 134.90° 133.35° Asphalt 0 ft / 0 m 0 ft / 0 m
31L 148 ft / 45 m 7,981 ft / 2,433 m 314.91° 313.36° Asphalt 344 ft / 105 m 0 ft / 0 m
31R 148 ft / 45 m 11,478 ft / 3,499 m 314.01° 312.46° Asphalt 2,165 ft / 660 m 0 ft / 0 m

LIEE

Details ICAO LIEE (CAG)
Name Cagliari Elmas
Region Italy
Timezone Europe/Rome (UTC+1.0)
Stats Elevation 13 ft / 4 m (AMSL)
Location 39.251475° 9.054291°
Runways 1
Magnetic Variation 2.297° E

METAR

LIEE 110720Z 16009KT 9999 FEW050 16/13 Q1007

Decode

TAF

TAF LIEE 110500Z 1106/1206 20012KT 9999 SCT030 BECMG 1116/1118 VRB05KT

Decode

Destination Runways

ID Width Length Bearing (true) Bearing (mag) Surface Threshold Offset Overrun Length
14 148 ft / 45 m 9,157 ft / 2,791 m 138.08° 135.78° Asphalt 0 ft / 0 m 187 ft / 57 m
32 148 ft / 45 m 9,157 ft / 2,791 m 318.09° 315.79° Asphalt 0 ft / 0 m 0 ft / 0 m

Approach Navaids

Runway Type Ident Frequency Range Bearing (true) Bearing (mag) Slope Elevation
32 Localiser IEL 109.50 MHz 18 nm / 33 km 318.12° 315.82° - 7 ft / 2 m (AMSL)
32 Glidescope IEL 109.50 MHz 10 nm / 19 km 318.08° 315.79° 3.00° 9 ft / 3 m (AMSL)
32 DME IEL 109.50 MHz 18 nm / 33 km - - - 26 ft / 8 m (AMSL)

Popular Alternatives